Time;durP1;ratioP1;P1;durP2;ratioP2;P2;SDS_P1;SDS_P2;PMS_P1;PMS_P2;Temp;Humidity;BMP_temperature;BMP_pressure;BME280_temperature;BME280_humidity;BME280_pressure;Samples;Min_cycle;Max_cycle;Signal;HPM_P1;HPM_P2
2022/10/19 00:00:32;;;;;;;24.73;9.23;;;;;;;;;;5070858;28;20039;-68
2022/10/19 00:02:58;;;;;;;24.38;9.77;;;;;;;;;;5066509;28;20036;-67
2022/10/19 00:05:24;;;;;;;28.33;10.48;;;;;;;;;;5067607;28;20474;-69
2022/10/19 00:07:50;;;;;;;25.10;9.57;;;;;;;;;;5067325;28;20028;-67
2022/10/19 00:10:16;;;;;;;23.63;8.90;;;;;;;;;;5068818;28;20058;-67
2022/10/19 00:12:42;;;;;;;28.77;9.18;;;;;;;;;;5059650;28;20545;-67
2022/10/19 00:15:08;;;;;;;31.13;9.55;;;;;;;;;;5067083;28;20032;-68
2022/10/19 00:17:34;;;;;;;30.38;8.95;;;;;;;;;;5055359;28;20114;-67
2022/10/19 00:20:00;;;;;;;33.30;9.38;;;;;;;;;;5066463;28;20470;-69
2022/10/19 00:22:27;;;;;;;25.92;8.70;;;;;;;;;;5067359;28;20028;-69
2022/10/19 00:24:53;;;;;;;28.30;9.25;;;;;;;;;;5063724;28;20552;-69
2022/10/19 00:27:19;;;;;;;32.58;9.77;;;;;;;;;;5066598;28;20028;-69
2022/10/19 00:29:45;;;;;;;24.90;8.90;;;;;;;;;;5061193;28;20696;-69
2022/10/19 00:32:11;;;;;;;24.30;9.00;;;;;;;;;;5067520;28;20059;-69
2022/10/19 00:34:37;;;;;;;27.63;8.63;;;;;;;;;;5065710;28;20139;-68
2022/10/19 00:37:03;;;;;;;24.33;8.48;;;;;;;;;;5074761;28;20481;-68
2022/10/19 00:39:29;;;;;;;30.88;8.90;;;;;;;;;;5070359;28;20485;-68
2022/10/19 00:41:55;;;;;;;30.58;9.38;;;;;;;;;;5059841;28;20079;-69
2022/10/19 00:44:28;;;;;;;28.42;8.73;;;;;;;;;;5063769;28;20036;-68
2022/10/19 00:46:57;;;;;;;23.45;8.00;;;;;;;;;;5065385;28;20048;-68
2022/10/19 00:49:25;;;;;;;27.08;8.68;;;;;;;;;;5064214;28;20063;-68
2022/10/19 00:51:53;;;;;;;24.75;8.18;;;;;;;;;;5060606;28;20089;-68
2022/10/19 00:54:19;;;;;;;29.75;8.98;;;;;;;;;;5066107;28;20096;-68
2022/10/19 00:56:47;;;;;;;25.30;8.23;;;;;;;;;;5058838;28;20407;-68
2022/10/19 00:59:15;;;;;;;28.33;9.32;;;;;;;;;;5071624;28;20043;-69
2022/10/19 01:01:43;;;;;;;22.40;8.57;;;;;;;;;;5063044;28;20138;-69
2022/10/19 01:04:10;;;;;;;21.95;8.45;;;;;;;;;;5072981;28;20024;-68
2022/10/19 01:06:36;;;;;;;23.35;8.63;;;;;;;;;;5061089;28;20466;-67
2022/10/19 01:09:02;;;;;;;25.00;8.05;;;;;;;;;;5060034;28;20032;-68
2022/10/19 01:11:58;;;;;;;22.92;8.70;;;;;;;;;;5064391;28;20379;-67
2022/10/19 01:14:42;;;;;;;25.60;8.82;;;;;;;;;;4982705;28;20620;-67
2022/10/19 01:17:27;;;;;;;27.02;8.20;;;;;;;;;;4983398;28;20368;-68
2022/10/19 01:20:11;;;;;;;25.60;9.02;;;;;;;;;;4966487;28;20038;-68
2022/10/19 01:22:40;;;;;;;23.42;8.30;;;;;;;;;;4981745;28;20030;-67
2022/10/19 01:25:09;;;;;;;23.92;8.32;;;;;;;;;;4967613;28;20482;-68
2022/10/19 01:27:47;;;;;;;30.55;7.65;;;;;;;;;;4982804;28;20701;-68
2022/10/19 01:30:15;;;;;;;22.00;7.68;;;;;;;;;;4984871;28;20038;-68
2022/10/19 01:32:47;;;;;;;26.45;8.32;;;;;;;;;;4967677;28;20038;-68
2022/10/19 01:35:18;;;;;;;24.70;7.72;;;;;;;;;;4968172;28;20057;-67
2022/10/19 01:37:55;;;;;;;25.35;7.85;;;;;;;;;;4965108;28;20037;-67
2022/10/19 01:40:26;;;;;;;24.88;8.13;;;;;;;;;;4984744;28;20638;-68
2022/10/19 01:43:01;;;;;;;24.08;8.32;;;;;;;;;;4981172;28;20241;-68
2022/10/19 01:45:35;;;;;;;26.10;8.05;;;;;;;;;;4988742;28;20080;-67
2022/10/19 01:48:11;;;;;;;24.83;8.30;;;;;;;;;;4966031;28;20062;-68
2022/10/19 01:50:40;;;;;;;32.60;9.25;;;;;;;;;;5009168;28;20056;-68
2022/10/19 01:53:08;;;;;;;27.98;8.45;;;;;;;;;;5063865;28;20036;-68
2022/10/19 01:55:35;;;;;;;23.23;8.50;;;;;;;;;;5060493;28;20779;-68
2022/10/19 01:58:03;;;;;;;26.33;9.05;;;;;;;;;;5064338;28;20036;-68
2022/10/19 02:00:31;;;;;;;25.50;8.75;;;;;;;;;;5062650;28;20713;-68
2022/10/19 02:02:58;;;;;;;23.25;8.75;;;;;;;;;;5065093;28;20020;-67
2022/10/19 02:05:28;;;;;;;24.88;8.68;;;;;;;;;;5061998;28;20043;-68
2022/10/19 02:08:02;;;;;;;25.45;8.57;;;;;;;;;;5057256;28;20032;-68
2022/10/19 02:10:28;;;;;;;26.42;8.75;;;;;;;;;;5062251;28;20031;-68
2022/10/19 02:12:55;;;;;;;22.50;7.60;;;;;;;;;;5063062;28;20029;-68
2022/10/19 02:15:23;;;;;;;28.55;8.68;;;;;;;;;;5063044;28;20042;-68
2022/10/19 02:17:51;;;;;;;24.85;8.75;;;;;;;;;;5059731;28;20183;-68
2022/10/19 02:20:17;;;;;;;27.20;8.18;;;;;;;;;;5067939;28;20093;-68
2022/10/19 02:22:43;;;;;;;25.48;8.63;;;;;;;;;;5057947;28;20020;-68
2022/10/19 02:25:10;;;;;;;21.30;7.32;;;;;;;;;;5061168;28;20475;-68
2022/10/19 02:27:38;;;;;;;24.80;8.10;;;;;;;;;;5061458;28;20700;-69
2022/10/19 02:30:05;;;;;;;27.48;8.65;;;;;;;;;;5064885;28;20042;-67
2022/10/19 02:32:31;;;;;;;28.92;9.23;;;;;;;;;;5065544;28;20038;-68
2022/10/19 02:34:58;;;;;;;23.23;8.15;;;;;;;;;;5067158;28;20406;-67
2022/10/19 02:37:24;;;;;;;27.20;8.25;;;;;;;;;;5061581;28;20169;-67
2022/10/19 02:39:50;;;;;;;23.75;8.30;;;;;;;;;;5060694;28;20531;-68
2022/10/19 02:42:19;;;;;;;25.00;8.60;;;;;;;;;;5074320;28;20066;-67
2022/10/19 02:45:00;;;;;;;23.95;8.05;;;;;;;;;;5069825;28;20071;-67
2022/10/19 02:47:38;;;;;;;28.88;8.90;;;;;;;;;;5066450;28;20539;-67
2022/10/19 02:50:05;;;;;;;24.67;8.70;;;;;;;;;;5066780;28;20031;-68
2022/10/19 02:52:31;;;;;;;25.23;8.93;;;;;;;;;;5066457;28;20036;-68
2022/10/19 02:54:57;;;;;;;25.02;8.27;;;;;;;;;;5068367;28;20031;-67
2022/10/19 02:57:24;;;;;;;29.00;9.38;;;;;;;;;;5073111;28;20039;-69
2022/10/19 02:59:51;;;;;;;24.10;8.13;;;;;;;;;;5064243;28;20631;-68
2022/10/19 03:02:17;;;;;;;24.98;8.45;;;;;;;;;;5075380;28;20036;-67
2022/10/19 03:04:44;;;;;;;21.27;8.35;;;;;;;;;;5069261;28;20151;-68
2022/10/19 03:07:12;;;;;;;22.08;8.18;;;;;;;;;;5075505;28;20020;-68
2022/10/19 03:09:38;;;;;;;26.30;8.75;;;;;;;;;;5068148;28;20106;-68
2022/10/19 03:12:04;;;;;;;24.23;8.52;;;;;;;;;;5073309;28;20024;-68
2022/10/19 03:14:31;;;;;;;19.13;7.82;;;;;;;;;;5072997;28;20410;-68
2022/10/19 03:16:57;;;;;;;22.67;8.07;;;;;;;;;;5070944;27;20031;-68
2022/10/19 03:19:23;;;;;;;23.88;7.57;;;;;;;;;;5071647;28;20032;-67
2022/10/19 03:21:49;;;;;;;27.77;8.90;;;;;;;;;;5068129;28;20485;-67
2022/10/19 03:24:16;;;;;;;23.98;8.02;;;;;;;;;;5069456;28;20024;-68
2022/10/19 03:26:42;;;;;;;21.95;8.10;;;;;;;;;;5066694;28;20031;-69
2022/10/19 03:29:08;;;;;;;25.65;8.82;;;;;;;;;;5067897;28;20134;-68
2022/10/19 03:31:34;;;;;;;22.30;7.82;;;;;;;;;;5067843;28;20028;-67
2022/10/19 03:34:01;;;;;;;22.65;8.30;;;;;;;;;;5067839;28;20494;-68
2022/10/19 03:36:27;;;;;;;21.88;7.68;;;;;;;;;;5069685;28;20481;-68
2022/10/19 03:38:54;;;;;;;27.23;7.57;;;;;;;;;;5069541;28;20038;-68
2022/10/19 03:41:21;;;;;;;21.38;7.65;;;;;;;;;;5069661;28;20053;-67
2022/10/19 03:43:47;;;;;;;26.88;8.65;;;;;;;;;;5066705;28;20028;-67
2022/10/19 03:46:13;;;;;;;20.90;8.02;;;;;;;;;;5068983;28;20048;-69
2022/10/19 03:48:39;;;;;;;22.27;7.70;;;;;;;;;;5064579;28;20069;-69
2022/10/19 03:51:07;;;;;;;21.58;7.50;;;;;;;;;;5071422;27;20031;-69
2022/10/19 03:53:34;;;;;;;26.70;8.40;;;;;;;;;;5060681;28;20032;-68
2022/10/19 03:56:03;;;;;;;19.85;6.80;;;;;;;;;;5068854;28;20035;-68
2022/10/19 03:58:29;;;;;;;24.30;7.45;;;;;;;;;;5059426;28;20130;-68
2022/10/19 04:00:55;;;;;;;26.35;7.72;;;;;;;;;;5063105;28;20339;-69
2022/10/19 04:03:21;;;;;;;24.45;7.40;;;;;;;;;;5065220;28;20345;-69
2022/10/19 04:05:47;;;;;;;18.75;6.85;;;;;;;;;;5064066;28;20111;-67
2022/10/19 04:08:13;;;;;;;20.90;7.25;;;;;;;;;;5067572;28;20035;-68
2022/10/19 04:10:39;;;;;;;24.73;7.65;;;;;;;;;;5062487;28;20028;-67
2022/10/19 04:13:05;;;;;;;23.67;8.07;;;;;;;;;;5070665;28;20453;-68
2022/10/19 04:15:32;;;;;;;20.52;7.72;;;;;;;;;;5067114;28;20381;-68
2022/10/19 04:17:58;;;;;;;22.48;7.68;;;;;;;;;;5064812;28;20900;-68
2022/10/19 04:20:24;;;;;;;28.48;7.88;;;;;;;;;;5070152;28;20028;-68
2022/10/19 04:22:52;;;;;;;25.30;7.68;;;;;;;;;;5065606;28;20066;-67
2022/10/19 04:25:18;;;;;;;19.85;7.85;;;;;;;;;;5065520;28;20034;-67
2022/10/19 04:27:44;;;;;;;25.38;9.15;;;;;;;;;;5066738;28;20104;-67
2022/10/19 04:30:11;;;;;;;22.52;7.93;;;;;;;;;;5072460;28;20423;-68
2022/10/19 04:32:37;;;;;;;28.95;8.30;;;;;;;;;;5060868;28;20051;-68
2022/10/19 04:35:03;;;;;;;26.60;7.82;;;;;;;;;;5066269;28;20502;-68
2022/10/19 04:37:29;;;;;;;29.88;8.65;;;;;;;;;;5071043;28;20035;-69
2022/10/19 04:39:55;;;;;;;26.98;8.63;;;;;;;;;;5065653;28;20060;-68
2022/10/19 04:42:21;;;;;;;23.90;8.35;;;;;;;;;;5068914;28;20035;-69
2022/10/19 04:44:48;;;;;;;24.83;8.48;;;;;;;;;;5063800;28;20129;-68
2022/10/19 04:47:14;;;;;;;31.15;8.90;;;;;;;;;;5064121;28;20036;-68
2022/10/19 04:49:40;;;;;;;27.02;8.65;;;;;;;;;;5061924;28;20470;-68
2022/10/19 04:52:06;;;;;;;29.65;10.07;;;;;;;;;;5062301;28;20035;-68
2022/10/19 04:54:32;;;;;;;27.17;8.93;;;;;;;;;;5064121;28;20027;-70
2022/10/19 04:56:58;;;;;;;29.65;9.55;;;;;;;;;;5067969;28;20218;-68
2022/10/19 04:59:25;;;;;;;27.23;9.77;;;;;;;;;;5065678;28;20066;-67
2022/10/19 05:01:51;;;;;;;25.35;8.82;;;;;;;;;;5065798;28;20024;-68
2022/10/19 05:04:17;;;;;;;26.52;8.90;;;;;;;;;;5066898;28;20389;-67
2022/10/19 05:06:43;;;;;;;35.00;9.70;;;;;;;;;;5058059;28;20028;-67
2022/10/19 05:09:09;;;;;;;28.23;8.95;;;;;;;;;;5068798;28;20726;-68
2022/10/19 05:11:35;;;;;;;24.98;8.30;;;;;;;;;;5066045;28;20139;-67
2022/10/19 05:14:01;;;;;;;26.55;9.30;;;;;;;;;;5063875;28;20036;-67
2022/10/19 05:16:28;;;;;;;32.22;9.98;;;;;;;;;;5065113;28;20032;-68
2022/10/19 05:18:55;;;;;;;27.67;9.68;;;;;;;;;;5061214;28;20032;-68
2022/10/19 05:21:22;;;;;;;34.80;9.55;;;;;;;;;;5065076;28;20039;-68
2022/10/19 05:23:51;;;;;;;26.52;8.82;;;;;;;;;;5066472;28;20542;-67
2022/10/19 05:26:18;;;;;;;26.55;8.00;;;;;;;;;;5060783;28;20036;-68
2022/10/19 05:28:48;;;;;;;24.77;8.32;;;;;;;;;;5060125;28;20513;-67
2022/10/19 05:31:18;;;;;;;24.27;8.65;;;;;;;;;;5068916;28;20434;-68
2022/10/19 05:33:45;;;;;;;29.08;7.70;;;;;;;;;;5059230;28;20623;-68
2022/10/19 05:36:22;;;;;;;27.73;8.88;;;;;;;;;;5062867;28;20070;-68
2022/10/19 05:38:50;;;;;;;25.83;8.85;;;;;;;;;;5061602;28;20567;-69
2022/10/19 05:41:17;;;;;;;27.30;8.82;;;;;;;;;;5069409;28;20680;-68
2022/10/19 05:43:43;;;;;;;25.42;8.02;;;;;;;;;;5062925;28;20036;-69
2022/10/19 05:46:11;;;;;;;23.80;8.85;;;;;;;;;;5066973;28;20815;-69
2022/10/19 05:48:38;;;;;;;24.00;7.80;;;;;;;;;;5061265;28;20039;-68
2022/10/19 05:51:04;;;;;;;29.88;9.30;;;;;;;;;;5060194;28;20876;-68
2022/10/19 05:53:31;;;;;;;25.27;8.50;;;;;;;;;;5067081;28;20058;-68
2022/10/19 05:55:57;;;;;;;25.23;8.77;;;;;;;;;;5066966;28;20691;-69
2022/10/19 05:58:24;;;;;;;22.73;8.85;;;;;;;;;;5064665;28;20047;-68
2022/10/19 06:00:54;;;;;;;30.98;9.38;;;;;;;;;;5061709;28;20028;-67
2022/10/19 06:03:21;;;;;;;32.53;10.73;;;;;;;;;;5062422;28;20036;-67
2022/10/19 06:05:51;;;;;;;30.23;9.73;;;;;;;;;;5057321;28;20085;-67
2022/10/19 06:08:17;;;;;;;31.00;9.95;;;;;;;;;;5061051;28;20040;-67
2022/10/19 06:10:44;;;;;;;34.90;10.88;;;;;;;;;;5058104;28;20100;-67
2022/10/19 06:13:10;;;;;;;30.17;10.85;;;;;;;;;;5060279;28;20036;-68
2022/10/19 06:15:39;;;;;;;31.98;8.82;;;;;;;;;;5057264;28;20504;-69
2022/10/19 06:18:14;;;;;;;26.23;8.40;;;;;;;;;;5061166;28;20158;-68
2022/10/19 06:20:41;;;;;;;30.75;8.88;;;;;;;;;;5059108;28;20530;-69
2022/10/19 06:23:08;;;;;;;27.48;9.82;;;;;;;;;;5067050;28;20039;-69
2022/10/19 06:25:34;;;;;;;25.80;9.30;;;;;;;;;;5057858;28;20409;-68
2022/10/19 06:28:01;;;;;;;26.60;9.30;;;;;;;;;;5061438;28;20430;-69
2022/10/19 06:30:28;;;;;;;26.02;9.15;;;;;;;;;;5060288;28;20310;-68
2022/10/19 06:32:54;;;;;;;33.50;9.63;;;;;;;;;;5063027;28;20039;-68
2022/10/19 06:35:20;;;;;;;27.98;10.00;;;;;;;;;;5063016;28;20509;-68
2022/10/19 06:37:46;;;;;;;26.35;9.93;;;;;;;;;;5062466;28;20042;-68
2022/10/19 06:40:12;;;;;;;32.10;8.93;;;;;;;;;;5068005;28;20040;-69
2022/10/19 06:42:38;;;;;;;29.15;10.00;;;;;;;;;;5060675;28;20024;-68
2022/10/19 06:45:08;;;;;;;28.60;12.07;;;;;;;;;;5066754;28;20028;-68
2022/10/19 06:47:35;;;;;;;27.10;10.82;;;;;;;;;;5061240;28;20052;-69
2022/10/19 06:50:01;;;;;;;34.05;11.82;;;;;;;;;;5062230;28;20028;-68
2022/10/19 06:52:28;;;;;;;25.98;11.48;;;;;;;;;;5063698;28;20036;-69
2022/10/19 06:54:54;;;;;;;29.60;10.88;;;;;;;;;;5061228;28;20134;-68
2022/10/19 06:57:20;;;;;;;;;;;;;;;;;;5068385;28;20032;-69
2022/10/19 06:59:46;;;;;;;31.95;11.05;;;;;;;;;;5061841;28;20076;-68
2022/10/19 07:02:12;;;;;;;24.45;10.45;;;;;;;;;;5068778;28;20028;-67
2022/10/19 07:04:38;;;;;;;27.88;9.18;;;;;;;;;;5063443;28;20024;-69
2022/10/19 07:07:04;;;;;;;31.00;10.68;;;;;;;;;;5060065;28;20075;-68
2022/10/19 07:09:31;;;;;;;28.02;10.20;;;;;;;;;;5067104;28;20551;-68
2022/10/19 07:11:57;;;;;;;26.08;9.25;;;;;;;;;;5062520;28;20577;-68
2022/10/19 07:14:23;;;;;;;26.98;10.15;;;;;;;;;;5067430;28;20043;-67
2022/10/19 07:16:50;;;;;;;30.00;10.20;;;;;;;;;;5062246;28;20033;-68
2022/10/19 07:19:16;;;;;;;29.63;10.73;;;;;;;;;;5062377;28;20512;-68
2022/10/19 07:21:43;;;;;;;24.55;9.70;;;;;;;;;;5062178;28;20024;-67
2022/10/19 07:24:09;;;;;;;29.80;9.00;;;;;;;;;;5063707;28;20110;-68
2022/10/19 07:26:36;;;;;;;24.95;8.15;;;;;;;;;;5059647;28;20115;-68
2022/10/19 07:29:03;;;;;;;20.35;8.10;;;;;;;;;;5064241;28;20067;-69
2022/10/19 07:31:30;;;;;;;21.88;7.60;;;;;;;;;;5072702;28;20016;-68
2022/10/19 07:33:57;;;;;;;29.13;8.75;;;;;;;;;;5058144;28;20041;-68
2022/10/19 07:36:24;;;;;;;20.15;7.50;;;;;;;;;;5069829;28;20143;-68
2022/10/19 07:38:50;;;;;;;26.42;8.25;;;;;;;;;;5061481;28;20125;-69
2022/10/19 07:41:17;;;;;;;25.60;8.43;;;;;;;;;;5065086;28;20124;-69
2022/10/19 07:43:44;;;;;;;23.10;7.80;;;;;;;;;;5068249;28;20421;-68
2022/10/19 07:46:12;;;;;;;27.70;7.65;;;;;;;;;;5067061;28;20122;-68
2022/10/19 07:48:39;;;;;;;24.23;7.93;;;;;;;;;;5060344;28;20116;-69
2022/10/19 07:51:06;;;;;;;25.63;7.35;;;;;;;;;;5069729;28;20032;-69
2022/10/19 07:53:33;;;;;;;22.92;7.97;;;;;;;;;;5064222;28;20024;-68
2022/10/19 07:56:06;;;;;;;23.80;7.68;;;;;;;;;;5069979;28;20036;-68
2022/10/19 07:58:33;;;;;;;26.10;8.70;;;;;;;;;;5061038;28;20103;-68
2022/10/19 08:01:00;;;;;;;26.60;8.75;;;;;;;;;;5068527;28;20514;-68
2022/10/19 08:03:26;;;;;;;23.52;7.80;;;;;;;;;;5068535;28;20030;-68
2022/10/19 08:05:52;;;;;;;23.95;8.35;;;;;;;;;;5062505;28;20032;-68
2022/10/19 08:08:18;;;;;;;21.45;7.45;;;;;;;;;;5070630;28;20057;-68
2022/10/19 08:10:45;;;;;;;24.63;7.78;;;;;;;;;;5065110;28;20537;-68
2022/10/19 08:13:11;;;;;;;26.45;7.63;;;;;;;;;;5068694;28;20456;-68
2022/10/19 08:15:37;;;;;;;28.35;8.20;;;;;;;;;;5062687;28;20031;-68
2022/10/19 08:18:03;;;;;;;22.40;7.60;;;;;;;;;;5064458;28;20084;-68
2022/10/19 08:20:29;;;;;;;28.15;7.53;;;;;;;;;;5066997;28;20028;-68
2022/10/19 08:22:55;;;;;;;27.02;9.20;;;;;;;;;;5063694;28;20027;-68
2022/10/19 08:25:21;;;;;;;27.05;9.18;;;;;;;;;;5065374;28;20383;-67
2022/10/19 08:27:47;;;;;;;30.23;8.85;;;;;;;;;;5065865;28;20477;-68
2022/10/19 08:30:13;;;;;;;24.17;7.40;;;;;;;;;;5066287;28;20032;-68
2022/10/19 08:32:40;;;;;;;33.33;8.52;;;;;;;;;;5070527;28;20407;-67
2022/10/19 08:35:06;;;;;;;25.92;8.00;;;;;;;;;;5067555;28;20595;-69
2022/10/19 08:37:32;;;;;;;37.70;9.07;;;;;;;;;;5070913;28;20050;-68
2022/10/19 08:39:58;;;;;;;29.02;7.78;;;;;;;;;;5070470;28;20055;-67
2022/10/19 08:42:29;;;;;;;24.77;7.82;;;;;;;;;;5066197;28;20043;-68
2022/10/19 08:45:14;;;;;;;29.42;8.30;;;;;;;;;;5068127;28;20028;-68
2022/10/19 08:47:59;;;;;;;25.27;8.20;;;;;;;;;;5067712;28;20028;-68
2022/10/19 08:50:29;;;;;;;22.15;7.85;;;;;;;;;;5066251;28;20033;-68
2022/10/19 08:53:01;;;;;;;26.42;8.43;;;;;;;;;;5059773;28;20054;-68
2022/10/19 08:55:47;;;;;;;30.42;7.72;;;;;;;;;;5068055;28;20031;-68
2022/10/19 08:58:24;;;;;;;33.85;9.43;;;;;;;;;;5065375;28;20039;-68
2022/10/19 09:00:53;;;;;;;29.35;8.57;;;;;;;;;;5066320;28;20603;-70
2022/10/19 09:03:23;;;;;;;28.45;8.27;;;;;;;;;;5068717;28;20020;-68
2022/10/19 09:05:58;;;;;;;30.73;8.70;;;;;;;;;;5059953;28;20031;-68
2022/10/19 09:08:24;;;;;;;31.50;8.30;;;;;;;;;;5063172;28;20028;-68
2022/10/19 09:10:52;;;;;;;27.50;8.25;;;;;;;;;;5062073;28;20028;-68
2022/10/19 09:13:24;;;;;;;23.35;6.88;;;;;;;;;;5067561;28;20458;-67
2022/10/19 09:15:54;;;;;;;22.30;6.80;;;;;;;;;;5062216;28;20024;-69
2022/10/19 09:18:22;;;;;;;29.67;7.93;;;;;;;;;;5060524;28;20032;-68
2022/10/19 09:20:55;;;;;;;27.50;7.93;;;;;;;;;;5059607;28;20481;-68
2022/10/19 09:23:21;;;;;;;27.17;7.97;;;;;;;;;;5065606;28;20557;-68
2022/10/19 09:25:48;;;;;;;30.67;8.30;;;;;;;;;;5063622;28;20118;-68
2022/10/19 09:28:20;;;;;;;28.75;7.63;;;;;;;;;;5063709;28;20045;-68
2022/10/19 09:30:47;;;;;;;26.60;8.10;;;;;;;;;;5061413;28;20436;-68
2022/10/19 09:33:19;;;;;;;26.17;8.13;;;;;;;;;;5063640;28;20097;-68
2022/10/19 09:35:46;;;;;;;29.98;8.70;;;;;;;;;;5060665;28;20086;-68
2022/10/19 09:38:15;;;;;;;26.80;9.43;;;;;;;;;;5061486;28;20028;-69
2022/10/19 09:40:42;;;;;;;26.27;7.90;;;;;;;;;;5062960;28;20024;-67
2022/10/19 09:43:18;;;;;;;28.05;7.95;;;;;;;;;;5063778;28;20097;-69
2022/10/19 09:45:49;;;;;;;24.38;7.68;;;;;;;;;;5060947;28;20047;-68
2022/10/19 09:48:24;;;;;;;25.35;7.25;;;;;;;;;;5062231;28;20067;-69
2022/10/19 09:51:14;;;;;;;22.08;7.03;;;;;;;;;;5060674;28;20058;-69
2022/10/19 09:53:55;;;;;;;25.13;7.22;;;;;;;;;;5051213;28;20048;-67
2022/10/19 09:56:23;;;;;;;30.25;7.63;;;;;;;;;;5070905;28;20028;-68
2022/10/19 09:58:50;;;;;;;25.15;7.32;;;;;;;;;;5057314;28;20151;-69
2022/10/19 10:01:29;;;;;;;22.48;7.45;;;;;;;;;;5068868;28;20032;-68
2022/10/19 10:04:04;;;;;;;25.33;7.60;;;;;;;;;;5063355;28;20442;-69
2022/10/19 10:06:30;;;;;;;31.33;7.82;;;;;;;;;;5064150;28;20159;-68
2022/10/19 10:08:59;;;;;;;24.95;7.93;;;;;;;;;;5061043;28;20132;-68
2022/10/19 10:11:32;;;;;;;28.77;7.90;;;;;;;;;;5065336;28;20787;-69
2022/10/19 10:14:00;;;;;;;31.10;9.60;;;;;;;;;;5065468;28;20043;-69
2022/10/19 10:16:29;;;;;;;27.58;8.55;;;;;;;;;;5064733;28;20050;-69
2022/10/19 10:18:59;;;;;;;20.98;6.75;;;;;;;;;;5055770;28;20078;-69
2022/10/19 10:21:34;;;;;;;35.38;9.32;;;;;;;;;;5062987;28;20086;-69
2022/10/19 10:24:05;;;;;;;31.73;9.55;;;;;;;;;;5064609;28;20027;-69
2022/10/19 10:26:32;;;;;;;26.08;7.80;;;;;;;;;;5057619;28;20032;-69
2022/10/19 10:28:59;;;;;;;25.05;7.40;;;;;;;;;;5060101;28;20620;-69
2022/10/19 10:31:27;;;;;;;30.10;7.43;;;;;;;;;;5062306;28;20032;-70
2022/10/19 10:33:55;;;;;;;28.83;7.78;;;;;;;;;;5060744;28;20351;-68
2022/10/19 10:36:23;;;;;;;29.13;8.05;;;;;;;;;;5065439;28;20389;-68
2022/10/19 10:38:50;;;;;;;23.95;7.60;;;;;;;;;;5059387;28;20027;-67
2022/10/19 10:41:19;;;;;;;30.05;8.30;;;;;;;;;;5064231;28;20508;-68
2022/10/19 10:44:05;;;;;;;21.17;6.50;;;;;;;;;;5055504;28;20109;-69
2022/10/19 10:46:36;;;;;;;31.48;7.85;;;;;;;;;;5061144;28;20019;-68
2022/10/19 10:49:04;;;;;;;27.50;7.60;;;;;;;;;;5059668;28;20125;-67
2022/10/19 10:51:37;;;;;;;26.58;7.80;;;;;;;;;;5063618;28;20124;-69
2022/10/19 10:54:16;;;;;;;30.05;8.30;;;;;;;;;;5064107;28;20494;-69
2022/10/19 10:56:43;;;;;;;25.05;7.68;;;;;;;;;;5060116;28;20501;-69
2022/10/19 10:59:21;;;;;;;27.08;6.93;;;;;;;;;;5065609;28;20023;-69
2022/10/19 11:02:01;;;;;;;21.92;7.25;;;;;;;;;;5060639;28;20496;-70
2022/10/19 11:04:29;;;;;;;31.38;8.60;;;;;;;;;;5060835;28;20083;-69
2022/10/19 11:06:58;;;;;;;31.80;8.40;;;;;;;;;;5061736;28;20024;-69
2022/10/19 11:09:35;;;;;;;30.35;7.97;;;;;;;;;;5067720;28;20089;-69
2022/10/19 11:12:03;;;;;;;29.13;8.25;;;;;;;;;;5063765;28;20035;-68
2022/10/19 11:14:29;;;;;;;30.73;9.32;;;;;;;;;;5066973;28;20304;-69
2022/10/19 11:16:57;;;;;;;27.73;8.02;;;;;;;;;;5066433;28;20558;-68
2022/10/19 11:19:34;;;;;;;26.98;7.07;;;;;;;;;;5063269;28;20091;-68
2022/10/19 11:22:14;;;;;;;26.02;7.85;;;;;;;;;;5069485;28;20032;-69
2022/10/19 11:24:40;;;;;;;26.70;7.35;;;;;;;;;;5060836;28;20551;-71
2022/10/19 11:27:12;;;;;;;33.88;7.80;;;;;;;;;;5066916;28;20032;-69
2022/10/19 11:30:01;;;;;;;29.63;7.50;;;;;;;;;;5061952;28;20029;-68
2022/10/19 11:32:52;;;;;;;33.70;7.28;;;;;;;;;;5067393;28;20498;-69
2022/10/19 11:35:18;;;;;;;25.27;7.53;;;;;;;;;;5068147;28;20040;-68
2022/10/19 11:38:03;;;;;;;22.95;7.32;;;;;;;;;;5063566;28;20043;-68
2022/10/19 11:40:37;;;;;;;26.63;7.32;;;;;;;;;;5071368;28;20353;-69
2022/10/19 11:43:15;;;;;;;24.67;6.88;;;;;;;;;;5065071;28;20055;-68
2022/10/19 11:45:48;;;;;;;23.60;6.82;;;;;;;;;;5066156;28;20332;-68
2022/10/19 11:48:20;;;;;;;31.27;8.10;;;;;;;;;;5065003;28;20192;-70
2022/10/19 11:50:53;;;;;;;30.33;7.38;;;;;;;;;;5069744;28;20508;-68
2022/10/19 11:53:26;;;;;;;30.83;8.18;;;;;;;;;;5069276;28;20036;-69
2022/10/19 11:55:52;;;;;;;26.70;7.07;;;;;;;;;;5062445;28;20204;-70
2022/10/19 11:58:36;;;;;;;22.08;6.80;;;;;;;;;;5070684;28;20343;-69
2022/10/19 12:01:16;;;;;;;33.03;7.05;;;;;;;;;;5067308;28;20025;-69
2022/10/19 12:03:42;;;;;;;27.48;6.65;;;;;;;;;;5063662;28;20310;-69
2022/10/19 12:06:15;;;;;;;25.85;7.18;;;;;;;;;;5062960;28;20035;-69
2022/10/19 12:08:50;;;;;;;21.75;6.38;;;;;;;;;;5063012;28;20118;-68
2022/10/19 12:11:30;;;;;;;22.15;7.18;;;;;;;;;;5059568;28;20059;-68
2022/10/19 12:14:00;;;;;;;24.77;7.32;;;;;;;;;;5060713;28;20566;-70
2022/10/19 12:16:43;;;;;;;24.63;8.18;;;;;;;;;;5071786;28;20066;-70
2022/10/19 12:19:39;;;;;;;27.05;7.35;;;;;;;;;;5073388;28;20450;-69
2022/10/19 12:22:06;;;;;;;25.63;7.10;;;;;;;;;;4963511;28;20031;-70
2022/10/19 12:24:33;;;;;;;26.95;7.25;;;;;;;;;;4977414;28;20068;-69
2022/10/19 12:27:00;;;;;;;25.02;6.70;;;;;;;;;;4984902;28;20053;-67
2022/10/19 12:29:32;;;;;;;30.30;7.25;;;;;;;;;;4984815;28;20104;-68
2022/10/19 12:32:00;;;;;;;28.02;7.78;;;;;;;;;;4984489;28;20045;-68
2022/10/19 12:34:44;;;;;;;28.20;7.97;;;;;;;;;;4984834;28;20427;-67
2022/10/19 12:37:19;;;;;;;27.50;6.88;;;;;;;;;;4967214;28;20057;-69
2022/10/19 12:39:51;;;;;;;26.33;7.28;;;;;;;;;;4982356;28;20042;-67
2022/10/19 12:42:22;;;;;;;23.55;6.50;;;;;;;;;;4968280;28;20480;-67
2022/10/19 12:45:04;;;;;;;23.48;7.05;;;;;;;;;;4965112;28;20496;-68
2022/10/19 12:47:31;;;;;;;33.58;7.80;;;;;;;;;;4965352;28;20396;-67
2022/10/19 12:49:57;;;;;;;24.60;7.22;;;;;;;;;;4980629;28;20441;-68
2022/10/19 12:52:37;;;;;;;21.45;6.43;;;;;;;;;;4983694;28;20104;-68
2022/10/19 12:55:15;;;;;;;30.45;7.90;;;;;;;;;;4987379;28;20038;-68
2022/10/19 12:57:49;;;;;;;28.42;7.18;;;;;;;;;;4993395;28;20051;-68
2022/10/19 13:00:19;;;;;;;29.67;7.57;;;;;;;;;;5067053;28;20039;-68
2022/10/19 13:02:47;;;;;;;22.95;6.60;;;;;;;;;;5060610;28;20036;-68
2022/10/19 13:05:20;;;;;;;23.85;6.65;;;;;;;;;;5063339;28;20035;-69
2022/10/19 13:07:48;;;;;;;26.53;7.37;;;;;;;;;;5057494;28;20024;-68
2022/10/19 13:10:19;;;;;;;22.38;7.13;;;;;;;;;;5064823;28;20430;-68
2022/10/19 13:12:46;;;;;;;30.65;7.63;;;;;;;;;;5059308;28;20036;-68
2022/10/19 13:15:32;;;;;;;26.20;7.90;;;;;;;;;;5066024;28;20020;-69
2022/10/19 13:17:58;;;;;;;26.67;7.30;;;;;;;;;;5064581;28;20501;-67
2022/10/19 13:20:24;;;;;;;27.52;7.60;;;;;;;;;;5069667;28;20038;-68
2022/10/19 13:23:02;;;;;;;23.70;6.90;;;;;;;;;;5062042;28;20039;-69
2022/10/19 13:25:38;;;;;;;23.40;6.57;;;;;;;;;;5059896;28;20024;-68
2022/10/19 13:28:10;;;;;;;22.55;7.13;;;;;;;;;;5066608;28;20031;-69
2022/10/19 13:33:21;;;;;;;29.08;7.18;;;;;;;;;;5062318;28;20028;-68
2022/10/19 13:35:47;;;;;;;23.65;7.03;;;;;;;;;;5063149;28;20451;-68
2022/10/19 13:38:17;;;;;;;25.65;7.15;;;;;;;;;;5067484;28;20135;-67
2022/10/19 13:40:49;;;;;;;24.27;7.32;;;;;;;;;;5065763;28;20556;-68
2022/10/19 13:43:29;;;;;;;27.58;6.63;;;;;;;;;;5066216;28;20040;-68
2022/10/19 13:46:07;;;;;;;28.27;6.72;;;;;;;;;;5059757;28;20587;-67
2022/10/19 13:48:52;;;;;;;27.90;6.93;;;;;;;;;;5059342;28;20461;-67
2022/10/19 13:51:24;;;;;;;33.10;8.00;;;;;;;;;;5059153;28;20058;-67
2022/10/19 13:54:11;;;;;;;22.83;6.55;;;;;;;;;;5062018;28;20500;-66
2022/10/19 13:56:49;;;;;;;23.88;6.43;;;;;;;;;;5018258;28;20489;-67
2022/10/19 13:59:28;;;;;;;20.92;6.93;;;;;;;;;;5058656;28;20470;-67
2022/10/19 14:02:32;;;;;;;30.60;7.95;;;;;;;;;;5064197;28;20020;-67
2022/10/19 14:05:17;;;;;;;24.77;7.20;;;;;;;;;;5020334;28;20570;-67
2022/10/19 14:07:46;;;;;;;27.55;8.02;;;;;;;;;;5012088;28;20391;-67
2022/10/19 14:10:13;;;;;;;31.73;7.72;;;;;;;;;;5016727;28;20056;-67
2022/10/19 14:12:41;;;;;;;25.05;6.95;;;;;;;;;;5011560;28;20755;-68
2022/10/19 14:15:27;;;;;;;25.60;7.13;;;;;;;;;;5013725;28;20079;-68
2022/10/19 14:17:53;;;;;;;;;;;;;;;;;;5011191;28;20044;-68
2022/10/19 14:20:39;;;;;;;26.30;6.72;;;;;;;;;;5015280;28;19925;-67
2022/10/19 14:23:23;;;;;;;26.17;6.97;;;;;;;;;;5012617;28;20060;-67
2022/10/19 14:25:50;;;;;;;23.95;6.82;;;;;;;;;;5015463;28;20060;-68
2022/10/19 14:28:17;;;;;;;24.70;7.50;;;;;;;;;;5021313;28;20455;-66
2022/10/19 14:30:43;;;;;;;22.33;6.45;;;;;;;;;;4994294;28;20559;-68
2022/10/19 14:33:13;;;;;;;19.80;6.60;;;;;;;;;;5020779;28;20516;-68
2022/10/19 14:35:42;;;;;;;25.23;6.47;;;;;;;;;;5035886;28;20489;-68
2022/10/19 14:38:15;;;;;;;21.52;6.40;;;;;;;;;;5066441;28;20047;-68
2022/10/19 14:40:41;;;;;;;29.15;6.30;;;;;;;;;;5060704;28;20031;-68
2022/10/19 14:43:24;;;;;;;25.45;6.45;;;;;;;;;;5068614;28;20036;-68
2022/10/19 14:46:06;;;;;;;24.30;6.75;;;;;;;;;;5064051;28;20052;-66
2022/10/19 14:48:33;;;;;;;23.25;7.38;;;;;;;;;;5055440;28;20019;-68